createdAt,value
2018-11-06T00:00:55.029Z,95.75
2018-11-06T00:01:55.020Z,95.65
2018-11-06T00:02:55.016Z,95.94
2018-11-06T00:03:55.009Z,95.94
2018-11-06T00:04:54.996Z,95.94
2018-11-06T00:05:54.989Z,96.22
2018-11-06T00:06:54.981Z,95.75
2018-11-06T00:07:54.975Z,95.84
2018-11-06T00:08:54.972Z,95.84
2018-11-06T00:09:54.965Z,96.42
2018-11-06T00:10:54.958Z,95.84
2018-11-06T00:11:54.954Z,96.32
2018-11-06T00:12:54.939Z,96.03
2018-11-06T00:13:54.930Z,96.32
2018-11-06T00:14:54.923Z,96.32
2018-11-06T00:15:54.914Z,96.13
2018-11-06T00:16:54.911Z,96.22
2018-11-06T00:17:54.905Z,96.03
2018-11-06T00:18:54.893Z,96.13
2018-11-06T00:19:54.885Z,96.13
2018-11-06T00:20:54.881Z,96.13
2018-11-06T00:21:54.875Z,96.13
2018-11-06T00:22:54.870Z,96.13
2018-11-06T00:23:54.860Z,95.94
2018-11-06T00:24:54.848Z,95.94
2018-11-06T00:25:54.841Z,96.08
2018-11-06T00:26:54.834Z,96.13
2018-11-06T00:27:54.827Z,95.79
2018-11-06T00:28:54.824Z,95.94
2018-11-06T00:29:54.816Z,96.03
2018-11-06T00:30:54.808Z,96.08
2018-11-06T00:31:54.801Z,96.32
2018-11-06T00:32:54.788Z,96.08
2018-11-06T00:33:54.787Z,96.08
2018-11-06T00:34:54.778Z,96.32
2018-11-06T00:35:54.770Z,95.89
2018-11-06T00:36:54.758Z,96.03
2018-11-06T00:37:54.751Z,96.27
2018-11-06T00:38:54.744Z,95.75
2018-11-06T00:39:54.737Z,96.08
2018-11-06T00:40:54.734Z,95.89
2018-11-06T00:41:54.727Z,96.03
2018-11-06T00:42:54.718Z,96.13
2018-11-06T00:43:54.712Z,96.13
2018-11-06T00:44:54.698Z,95.65
2018-11-06T00:45:54.690Z,96.22
2018-11-06T00:46:54.724Z,95.84
2018-11-06T00:47:54.677Z,95.75
2018-11-06T00:48:54.675Z,95.75
2018-11-06T00:49:54.665Z,95.94
2018-11-06T00:50:54.655Z,95.75
2018-11-06T00:51:54.647Z,95.79
2018-11-06T00:52:54.642Z,95.84
2018-11-06T00:53:54.636Z,95.79
2018-11-06T00:54:54.629Z,95.89
2018-11-06T00:55:54.627Z,96.32
2018-11-06T00:56:54.608Z,96.08
2018-11-06T00:57:54.601Z,96.08
2018-11-06T00:58:54.593Z,96.08
2018-11-06T00:59:54.588Z,95.89
2018-11-06T01:00:54.584Z,96.08
2018-11-06T01:01:54.576Z,95.98
2018-11-06T01:02:54.568Z,96.75
2018-11-06T01:03:54.561Z,96.46
2018-11-06T01:04:54.547Z,96.84
2018-11-06T01:05:54.542Z,96.27
2018-11-06T01:06:54.543Z,96.27
2018-11-06T01:07:54.558Z,96.56
2018-11-06T01:08:54.521Z,96.37
2018-11-06T01:09:54.512Z,96.46
2018-11-06T01:10:54.504Z,96.66
2018-11-06T01:11:54.496Z,96.66
2018-11-06T01:12:54.494Z,96.66
2018-11-06T01:13:54.487Z,96.46
2018-11-06T01:14:54.479Z,96.37
2018-11-06T01:15:54.473Z,96.56
2018-11-06T01:16:54.501Z,96.37
2018-11-06T01:17:54.450Z,96.66
2018-11-06T01:18:54.446Z,96.46
2018-11-06T01:19:54.436Z,96.46
2018-11-06T01:20:54.433Z,96.66
2018-11-06T01:21:54.433Z,96.84
2018-11-06T01:22:54.417Z,96.94
2018-11-06T01:23:54.412Z,96.17
2018-11-06T01:24:54.401Z,95.98
2018-11-06T01:25:54.394Z,96.08
2018-11-06T01:26:54.393Z,96.08
2018-11-06T01:27:54.381Z,96.08
2018-11-06T01:28:54.370Z,96.08
2018-11-06T01:29:54.360Z,96.08
2018-11-06T01:30:54.354Z,95.89
2018-11-06T01:31:54.349Z,95.61
2018-11-06T01:32:54.347Z,95.79
2018-11-06T01:33:54.336Z,96.08
2018-11-06T01:34:54.327Z,96.17
2018-11-06T01:35:54.321Z,96.17
2018-11-06T01:36:54.308Z,96.27
2018-11-06T01:37:54.301Z,96.27
2018-11-06T01:38:54.298Z,95.98
2018-11-06T01:39:54.291Z,96.27
2018-11-06T01:40:54.277Z,96.27
2018-11-06T01:41:54.269Z,95.61
2018-11-06T01:42:54.262Z,96.27
2018-11-06T01:43:54.257Z,96.27
2018-11-06T01:44:54.252Z,96.27
2018-11-06T01:45:54.245Z,96.08
2018-11-06T01:46:54.240Z,96.27
2018-11-06T01:47:54.229Z,96.08
2018-11-06T01:48:54.217Z,96.27
2018-11-06T01:49:54.209Z,95.70
2018-11-06T01:50:54.205Z,95.89
2018-11-06T01:51:54.195Z,95.89
2018-11-06T01:52:54.192Z,95.41
2018-11-06T01:53:54.185Z,95.51
2018-11-06T01:54:54.172Z,95.41
2018-11-06T01:55:54.169Z,95.65
2018-11-06T01:56:54.162Z,94.98
2018-11-06T01:57:54.154Z,95.17
2018-11-06T01:58:54.146Z,95.46
2018-11-06T01:59:54.148Z,95.17
2018-11-06T02:00:54.126Z,95.17
2018-11-06T02:01:54.119Z,95.27
2018-11-06T02:02:54.111Z,95.41
2018-11-06T02:03:54.103Z,95.46
2018-11-06T02:04:54.099Z,95.70
2018-11-06T02:05:54.092Z,95.51
2018-11-06T02:06:54.089Z,95.12
2018-11-06T02:07:54.079Z,95.27
2018-11-06T02:08:54.066Z,95.46
2018-11-06T02:09:54.058Z,95.46
2018-11-06T02:10:54.056Z,94.79
2018-11-06T02:11:54.048Z,94.98
2018-11-06T02:12:54.036Z,94.70
2018-11-06T02:13:54.028Z,94.70
2018-11-06T02:14:54.020Z,94.89
2018-11-06T02:15:54.024Z,94.70
2018-11-06T02:16:54.011Z,94.60
2018-11-06T02:17:54.001Z,94.31
2018-11-06T02:18:53.993Z,94.41
2018-11-06T02:19:53.986Z,94.60
2018-11-06T02:20:53.975Z,94.31
2018-11-06T02:21:53.969Z,94.60
2018-11-06T02:22:53.959Z,94.03
2018-11-06T02:23:53.952Z,94.51
2018-11-06T02:24:53.949Z,94.60
2018-11-06T02:25:53.941Z,94.70
2018-11-06T02:26:53.929Z,94.36
2018-11-06T02:27:53.921Z,94.41
2018-11-06T02:28:53.919Z,94.51
2018-11-06T02:29:53.911Z,94.89
2018-11-06T02:30:53.903Z,94.51
2018-11-06T02:31:53.898Z,94.31
2018-11-06T02:32:53.883Z,94.89
2018-11-06T02:33:53.877Z,94.51
2018-11-06T02:34:53.869Z,94.51
2018-11-06T02:35:53.861Z,94.60
2018-11-06T02:36:53.860Z,94.51
2018-11-06T02:37:53.850Z,94.70
2018-11-06T02:38:53.842Z,94.60
2018-11-06T02:39:53.836Z,94.31
2018-11-06T02:40:53.823Z,94.51
2018-11-06T02:41:53.815Z,94.03
2018-11-06T02:42:53.814Z,94.03
2018-11-06T02:43:53.808Z,94.22
2018-11-06T02:44:53.793Z,94.51
2018-11-06T02:45:53.786Z,94.31
2018-11-06T02:46:53.777Z,94.41
2018-11-06T02:47:53.769Z,94.31
2018-11-06T02:48:53.766Z,94.51
2018-11-06T02:49:53.759Z,94.41
2018-11-06T02:50:53.752Z,94.41
2018-11-06T02:51:53.744Z,94.41
2018-11-06T02:52:53.745Z,93.84
2018-11-06T02:53:53.726Z,94.60
2018-11-06T02:54:53.717Z,94.03
2018-11-06T02:55:53.757Z,94.12
2018-11-06T02:56:53.706Z,93.93
2018-11-06T02:57:53.700Z,93.26
2018-11-06T02:58:53.690Z,93.36
2018-11-06T02:59:53.681Z,93.46
2018-11-06T03:00:53.681Z,93.74
2018-11-06T03:01:53.668Z,93.46
2018-11-06T03:02:53.662Z,93.65
2018-11-06T03:03:53.658Z,93.17
2018-11-06T03:04:53.642Z,93.84
2018-11-06T03:05:53.634Z,93.84
2018-11-06T03:06:53.628Z,93.65
2018-11-06T03:07:53.623Z,93.65
2018-11-06T03:08:53.618Z,93.65
2018-11-06T03:09:53.609Z,93.26
2018-11-06T03:10:53.601Z,93.74
2018-11-06T03:11:53.603Z,93.65
2018-11-06T03:12:53.581Z,93.55
2018-11-06T03:13:53.574Z,93.65
2018-11-06T03:14:53.572Z,93.46
2018-11-06T03:15:53.564Z,93.84
2018-11-06T03:16:53.572Z,93.74
2018-11-06T03:17:53.545Z,93.93
2018-11-06T03:18:53.538Z,93.74
2018-11-06T03:19:53.530Z,93.84
2018-11-06T03:20:53.526Z,93.46
2018-11-06T03:21:53.523Z,93.74
2018-11-06T03:22:53.512Z,93.93
2018-11-06T03:23:53.505Z,93.98
2018-11-06T03:24:53.492Z,93.84
2018-11-06T03:25:53.485Z,92.97
2018-11-06T03:26:53.491Z,93.70
2018-11-06T03:27:53.475Z,93.02
2018-11-06T03:28:53.466Z,93.41
2018-11-06T03:29:53.462Z,93.12
2018-11-06T03:30:53.452Z,92.83
2018-11-06T03:31:53.440Z,92.45
2018-11-06T03:32:53.437Z,93.21
2018-11-06T03:33:53.431Z,92.64
2018-11-06T03:34:53.424Z,92.36
2018-11-06T03:35:53.417Z,92.64
2018-11-06T03:36:53.405Z,92.64
2018-11-06T03:37:53.399Z,92.64
2018-11-06T03:38:53.390Z,92.36
2018-11-06T03:39:53.382Z,92.36
2018-11-06T03:40:53.380Z,92.45
2018-11-06T03:41:53.374Z,92.45
2018-11-06T03:42:53.365Z,92.55
2018-11-06T03:43:53.359Z,92.45
2018-11-06T03:44:53.349Z,92.55
2018-11-06T03:45:53.338Z,92.36
2018-11-06T03:46:53.336Z,92.36
2018-11-06T03:47:53.332Z,92.36
2018-11-06T03:48:53.317Z,92.26
2018-11-06T03:49:53.311Z,92.45
2018-11-06T03:50:53.304Z,92.45
2018-11-06T03:51:53.296Z,92.64
2018-11-06T03:52:53.292Z,92.16
2018-11-06T03:53:53.289Z,92.36
2018-11-06T03:54:53.279Z,92.36
2018-11-06T03:55:53.272Z,92.45
2018-11-06T03:56:53.259Z,92.83
2018-11-06T03:57:53.254Z,92.83
2018-11-06T03:58:53.247Z,92.93
2018-11-06T03:59:53.240Z,92.64
2018-11-06T04:00:53.276Z,93.50
2018-11-06T04:01:53.229Z,92.93
2018-11-06T04:02:53.217Z,92.74
2018-11-06T04:03:53.212Z,92.74
2018-11-06T04:04:53.209Z,92.45
2018-11-06T04:05:53.202Z,92.64
2018-11-06T04:06:53.196Z,92.64
2018-11-06T04:07:53.189Z,92.83
2018-11-06T04:08:53.175Z,92.83
2018-11-06T04:09:53.169Z,92.55
2018-11-06T04:10:53.162Z,92.45
2018-11-06T04:11:53.155Z,92.26
2018-11-06T04:12:53.153Z,92.36
2018-11-06T04:13:53.146Z,92.83
2018-11-06T04:14:53.141Z,92.26
2018-11-06T04:15:53.142Z,92.64
2018-11-06T04:16:53.121Z,92.83
2018-11-06T04:17:53.116Z,93.41
2018-11-06T04:18:53.113Z,93.31
2018-11-06T04:19:53.107Z,92.74
2018-11-06T04:20:53.094Z,93.88
2018-11-06T04:21:53.091Z,93.98
2018-11-06T04:22:53.081Z,93.21
2018-11-06T04:23:53.079Z,93.88
2018-11-06T04:24:53.102Z,93.65
2018-11-06T04:25:53.065Z,93.07
2018-11-06T04:26:53.059Z,93.93
2018-11-06T04:27:53.058Z,93.17
2018-11-06T04:28:53.040Z,93.65
2018-11-06T04:29:53.038Z,93.55
2018-11-06T04:30:53.027Z,93.46
2018-11-06T04:31:53.019Z,93.46
2018-11-06T04:32:53.018Z,93.36
2018-11-06T04:33:53.010Z,94.22
2018-11-06T04:34:52.998Z,93.84
2018-11-06T04:35:52.992Z,93.93
2018-11-06T04:36:52.990Z,93.84
2018-11-06T04:37:52.983Z,94.41
2018-11-06T04:38:52.976Z,94.41
2018-11-06T04:39:52.972Z,94.70
2018-11-06T04:40:52.957Z,94.36
2018-11-06T04:41:52.950Z,94.60
2018-11-06T04:42:52.942Z,94.36
2018-11-06T04:43:52.935Z,94.22
2018-11-06T04:44:52.932Z,94.03
2018-11-06T04:45:52.925Z,94.31
2018-11-06T04:46:52.919Z,94.60
2018-11-06T04:47:52.912Z,94.41
2018-11-06T04:48:52.899Z,94.31
2018-11-06T04:49:52.894Z,94.41
2018-11-06T04:50:52.893Z,94.60
2018-11-06T04:51:52.889Z,94.41
2018-11-06T04:52:52.871Z,94.70
2018-11-06T04:53:52.864Z,94.22
2018-11-06T04:54:52.858Z,94.12
2018-11-06T04:55:52.856Z,94.22
2018-11-06T04:56:52.847Z,94.31
2018-11-06T04:57:52.842Z,94.51
2018-11-06T04:58:52.830Z,94.31
2018-11-06T04:59:52.823Z,94.60
2018-11-06T05:00:52.820Z,94.70
2018-11-06T05:01:52.827Z,94.31
2018-11-06T05:02:52.815Z,94.60
2018-11-06T05:03:52.799Z,94.98
2018-11-06T05:04:52.789Z,94.70
2018-11-06T05:05:52.779Z,94.79
2018-11-06T05:06:52.830Z,94.70
2018-11-06T05:07:52.775Z,94.60
2018-11-06T05:08:52.759Z,94.89
2018-11-06T05:09:52.752Z,94.89
2018-11-06T05:10:52.747Z,94.98
2018-11-06T05:11:52.740Z,94.79
2018-11-06T05:12:52.737Z,94.84
2018-11-06T05:13:52.764Z,95.32
2018-11-06T05:14:52.723Z,95.22
2018-11-06T05:15:52.717Z,95.41
2018-11-06T05:16:52.703Z,94.84
2018-11-06T05:17:52.697Z,95.51
2018-11-06T05:18:52.691Z,95.03
2018-11-06T05:19:52.683Z,95.70
2018-11-06T05:20:52.680Z,95.61
2018-11-06T05:21:52.674Z,95.61
2018-11-06T05:22:52.662Z,95.61
2018-11-06T05:23:52.658Z,95.89
2018-11-06T05:24:52.651Z,95.79
2018-11-06T05:25:52.649Z,96.08
2018-11-06T05:26:52.639Z,96.27
2018-11-06T05:27:52.633Z,95.98
2018-11-06T05:28:52.665Z,95.89
2018-11-06T05:29:52.613Z,96.17
2018-11-06T05:30:52.605Z,96.08
2018-11-06T05:31:52.598Z,96.17
2018-11-06T05:32:52.663Z,95.89
2018-11-06T05:33:52.589Z,95.70
2018-11-06T05:34:52.652Z,95.98
2018-11-06T05:35:52.575Z,96.08
2018-11-06T05:36:52.563Z,96.08
2018-11-06T05:37:52.554Z,95.98
2018-11-06T05:38:52.587Z,95.61
2018-11-06T05:39:52.544Z,95.12
2018-11-06T05:40:52.539Z,95.22
2018-11-06T05:41:52.524Z,95.41
2018-11-06T05:42:52.517Z,95.32
2018-11-06T05:43:52.543Z,95.03
2018-11-06T05:44:52.507Z,94.84
2018-11-06T05:45:52.501Z,94.84
2018-11-06T05:46:52.495Z,94.84
2018-11-06T05:47:52.485Z,94.74
2018-11-06T05:48:52.473Z,94.74
2018-11-06T05:49:52.467Z,94.84
2018-11-06T05:50:52.460Z,94.65
2018-11-06T05:51:52.453Z,94.65
2018-11-06T05:52:52.447Z,94.74
2018-11-06T05:53:52.439Z,94.84
2018-11-06T05:54:52.428Z,94.93
2018-11-06T05:55:52.420Z,94.65
2018-11-06T05:56:52.417Z,94.74
2018-11-06T05:57:52.409Z,94.93
2018-11-06T05:58:52.404Z,94.84
2018-11-06T05:59:52.397Z,94.93
2018-11-06T06:00:52.383Z,94.56
2018-11-06T06:01:52.377Z,94.84
2018-11-06T06:02:52.369Z,94.93
2018-11-06T06:03:52.361Z,94.84
2018-11-06T06:04:52.360Z,95.03
2018-11-06T06:05:52.350Z,95.32
2018-11-06T06:06:52.344Z,94.84
2018-11-06T06:07:52.337Z,95.32
2018-11-06T06:08:52.323Z,95.12
2018-11-06T06:09:52.316Z,95.32
2018-11-06T06:10:52.364Z,95.03
2018-11-06T06:11:52.311Z,95.51
2018-11-06T06:12:52.295Z,96.08
2018-11-06T06:13:52.287Z,96.08
2018-11-06T06:14:52.279Z,96.08
2018-11-06T06:15:52.275Z,95.98
2018-11-06T06:16:52.424Z,95.98
2018-11-06T06:17:52.261Z,95.89
2018-11-06T06:18:52.255Z,95.79
2018-11-06T06:19:52.247Z,96.17
2018-11-06T06:20:52.234Z,96.03
2018-11-06T06:21:52.228Z,96.17
2018-11-06T06:22:52.221Z,96.94
2018-11-06T06:23:52.214Z,96.94
2018-11-06T06:24:52.210Z,96.22
2018-11-06T06:25:52.203Z,96.46
2018-11-06T06:26:52.191Z,96.32
2018-11-06T06:27:52.183Z,96.80
2018-11-06T06:28:52.181Z,96.75
2018-11-06T06:29:52.174Z,96.61
2018-11-06T06:30:52.166Z,96.51
2018-11-06T06:31:52.158Z,96.80
2018-11-06T06:32:52.146Z,96.61
2018-11-06T06:33:52.141Z,96.41
2018-11-06T06:34:52.134Z,96.61
2018-11-06T06:35:52.125Z,96.32
2018-11-06T06:36:52.120Z,96.51
2018-11-06T06:37:52.114Z,96.61
2018-11-06T06:38:52.282Z,97.08
2018-11-06T06:39:52.112Z,96.61
2018-11-06T06:40:52.151Z,96.61
2018-11-06T06:41:52.080Z,97.56
2018-11-06T06:42:52.078Z,96.61
2018-11-06T06:43:52.070Z,96.80
2018-11-06T06:44:52.058Z,96.70
2018-11-06T06:45:52.050Z,97.66
2018-11-06T06:46:52.042Z,97.27
2018-11-06T06:47:52.036Z,97.46
2018-11-06T06:48:52.035Z,97.46
2018-11-06T06:49:52.023Z,97.27
2018-11-06T06:50:52.018Z,97.37
2018-11-06T06:51:52.009Z,97.17
2018-11-06T06:52:51.998Z,96.89
2018-11-06T06:53:52.012Z,97.85
2018-11-06T06:54:51.988Z,97.80
2018-11-06T06:55:51.975Z,97.94
2018-11-06T06:56:51.972Z,97.46
2018-11-06T06:57:51.967Z,98.03
2018-11-06T06:58:51.952Z,98.22
2018-11-06T06:59:51.945Z,98.22
2018-11-06T07:00:51.940Z,98.13
2018-11-06T07:01:51.935Z,98.32
2018-11-06T07:02:51.927Z,98.22
2018-11-06T07:03:51.919Z,98.22
2018-11-06T07:04:51.905Z,98.32
2018-11-06T07:05:51.898Z,98.22
2018-11-06T07:06:51.891Z,98.42
2018-11-06T07:07:51.884Z,97.75
2018-11-06T07:08:51.882Z,97.75
2018-11-06T07:09:51.873Z,97.85
2018-11-06T07:10:51.865Z,97.17
2018-11-06T07:11:51.858Z,97.46
2018-11-06T07:12:51.938Z,96.41
2018-11-06T07:13:51.839Z,96.61
2018-11-06T07:14:51.835Z,96.32
2018-11-06T07:15:51.828Z,96.51
2018-11-06T07:16:51.815Z,96.51
2018-11-06T07:17:51.810Z,96.41
2018-11-06T07:18:51.803Z,96.61
2018-11-06T07:19:51.795Z,96.41
2018-11-06T07:20:51.791Z,96.32
2018-11-06T07:21:51.784Z,96.46
2018-11-06T07:22:51.777Z,96.66
2018-11-06T07:23:51.769Z,96.56
2018-11-06T07:24:51.756Z,96.61
2018-11-06T07:25:51.749Z,95.98
2018-11-06T07:26:51.743Z,96.22
2018-11-06T07:27:51.735Z,95.36
2018-11-06T07:28:51.816Z,93.88
2018-11-06T07:29:51.725Z,92.68
2018-11-06T07:30:51.715Z,91.00
2018-11-06T07:31:51.714Z,89.37
2018-11-06T07:32:51.709Z,87.60
2018-11-06T07:33:51.700Z,86.41
2018-11-06T07:34:51.824Z,86.12
2018-11-06T07:35:51.817Z,86.36
2018-11-06T07:36:51.682Z,86.65
2018-11-06T07:37:51.676Z,86.84
2018-11-06T07:38:51.672Z,86.80
2018-11-06T07:39:51.667Z,87.85
2018-11-06T07:40:51.683Z,87.47
2018-11-06T07:41:51.662Z,87.95
2018-11-06T07:42:51.658Z,88.43
2018-11-06T07:43:51.653Z,88.76
2018-11-06T07:44:51.645Z,87.66
2018-11-06T07:45:51.642Z,87.76
2018-11-06T07:46:51.642Z,88.33
2018-11-06T07:47:51.638Z,88.23
2018-11-06T07:48:51.631Z,88.23
2018-11-06T07:49:51.712Z,88.67
2018-11-06T07:50:51.627Z,87.90
2018-11-06T07:51:51.624Z,88.86
2018-11-06T07:52:51.622Z,88.86
2018-11-06T07:53:51.618Z,89.72
2018-11-06T07:54:51.621Z,89.43
2018-11-06T07:55:51.700Z,90.01
2018-11-06T07:56:51.605Z,89.86
2018-11-06T07:57:51.601Z,89.62
2018-11-06T07:58:51.597Z,88.99
2018-11-06T07:59:51.594Z,88.13
2018-11-06T08:00:51.596Z,86.54
2018-11-06T08:01:51.593Z,85.68
2018-11-06T08:02:51.587Z,84.77
2018-11-06T08:03:51.582Z,84.14
2018-11-06T08:04:51.584Z,83.18
2018-11-06T08:05:51.581Z,82.12
2018-11-06T08:06:51.580Z,81.84
2018-11-06T08:07:51.578Z,82.26
2018-11-06T08:08:51.570Z,80.73
2018-11-06T08:09:51.649Z,80.51
2018-11-06T08:10:51.566Z,78.73
2018-11-06T08:11:51.565Z,77.42
2018-11-06T08:12:51.569Z,75.92
2018-11-06T08:13:51.567Z,74.13
2018-11-06T08:14:51.586Z,72.75
2018-11-06T08:15:51.565Z,71.25
2018-11-06T08:16:51.560Z,70.03
2018-11-06T08:17:51.570Z,68.07
2018-11-06T08:18:51.564Z,66.17
2018-11-06T08:19:51.564Z,64.56
2018-11-06T08:20:51.559Z,63.53
2018-11-06T08:21:51.558Z,62.37
2018-11-06T08:22:51.559Z,61.40
2018-11-06T08:23:51.719Z,60.21
2018-11-06T08:24:51.567Z,60.53
2018-11-06T08:25:51.566Z,60.63
2018-11-06T08:26:51.567Z,60.01
2018-11-06T08:27:51.615Z,58.92
2018-11-06T08:28:51.567Z,58.04
2018-11-06T08:29:51.569Z,58.37
2018-11-06T08:30:51.808Z,58.01
2018-11-06T08:31:51.771Z,56.49
2018-11-06T08:32:52.068Z,56.03
2018-11-06T08:33:51.585Z,55.83
2018-11-06T08:34:51.582Z,54.90
2018-11-06T08:35:51.587Z,54.14
2018-11-06T08:36:51.621Z,52.81
2018-11-06T08:37:51.598Z,51.93
2018-11-06T08:38:51.599Z,51.53
2018-11-06T08:39:51.604Z,52.01
2018-11-06T08:40:51.602Z,51.77
2018-11-06T08:41:51.606Z,51.47
2018-11-06T08:42:51.611Z,52.56
2018-11-06T08:43:51.615Z,52.33
2018-11-06T08:44:51.624Z,51.45
2018-11-06T08:45:51.629Z,50.87
2018-11-06T08:46:51.636Z,50.80
2018-11-06T08:47:51.688Z,50.77
2018-11-06T08:48:51.637Z,50.87
2018-11-06T08:49:51.645Z,51.37
2018-11-06T08:50:51.653Z,51.50
2018-11-06T08:51:51.658Z,51.50
2018-11-06T08:52:51.656Z,52.59
2018-11-06T08:53:51.662Z,51.45
2018-11-06T08:54:51.667Z,51.21
2018-11-06T08:55:51.672Z,50.07
2018-11-06T08:56:51.681Z,49.39
2018-11-06T08:57:51.687Z,49.34
2018-11-06T08:58:51.692Z,49.10
2018-11-06T08:59:51.697Z,48.88
2018-11-06T09:00:51.698Z,48.52
2018-11-06T09:01:51.705Z,49.44
2018-11-06T09:02:51.711Z,49.46
2018-11-06T09:03:51.729Z,49.15
2018-11-06T09:04:51.725Z,49.15
2018-11-06T09:05:51.732Z,49.37
2018-11-06T09:06:51.733Z,49.02
2018-11-06T09:07:51.739Z,50.14
2018-11-06T09:08:51.863Z,50.65
2018-11-06T09:09:51.756Z,50.72
2018-11-06T09:10:51.762Z,51.79
2018-11-06T09:11:51.769Z,51.40
2018-11-06T09:12:51.768Z,51.54
2018-11-06T09:13:51.774Z,52.20
2018-11-06T09:14:51.781Z,53.69
2018-11-06T09:15:51.793Z,54.90
2018-11-06T09:16:51.806Z,56.09
2018-11-06T09:17:51.803Z,57.12
2018-11-06T09:18:51.811Z,56.93
2018-11-06T09:19:51.817Z,57.21
2018-11-06T09:20:51.821Z,56.95
2018-11-06T09:21:51.823Z,57.99
2018-11-06T09:22:51.835Z,57.76
2018-11-06T09:23:51.839Z,57.28
2018-11-06T09:24:51.839Z,56.21
2018-11-06T09:25:51.844Z,55.85
2018-11-06T09:26:51.849Z,55.51
2018-11-06T09:27:51.855Z,56.99
2018-11-06T09:28:51.865Z,57.54
2018-11-06T09:29:51.870Z,56.79
2018-11-06T09:30:51.911Z,56.36
2018-11-06T09:31:51.882Z,55.70
2018-11-06T09:32:51.882Z,55.99
2018-11-06T09:33:51.890Z,56.67
2018-11-06T09:34:51.894Z,57.29
2018-11-06T09:35:51.901Z,57.12
2018-11-06T09:36:51.910Z,56.93
2018-11-06T09:37:51.916Z,57.99
2018-11-06T09:38:51.916Z,57.99
2018-11-06T09:39:51.923Z,57.66
2018-11-06T09:40:51.933Z,56.62
2018-11-06T09:41:51.938Z,56.11
2018-11-06T09:42:51.943Z,56.18
2018-11-06T09:43:51.949Z,56.05
2018-11-06T09:44:52.017Z,57.34
2018-11-06T09:45:51.954Z,56.50
2018-11-06T09:46:51.960Z,55.38
2018-11-06T09:47:51.967Z,56.05
2018-11-06T09:48:52.037Z,56.50
2018-11-06T09:49:51.980Z,55.73
2018-11-06T09:50:51.988Z,55.53
2018-11-06T09:51:52.044Z,55.51
2018-11-06T09:52:51.992Z,55.82
2018-11-06T09:53:51.996Z,55.99
2018-11-06T09:54:52.008Z,55.53
2018-11-06T09:55:52.013Z,55.66
2018-11-06T09:56:52.012Z,55.21
2018-11-06T09:57:52.018Z,55.47
2018-11-06T09:58:52.026Z,56.37
2018-11-06T09:59:52.040Z,56.18
2018-11-06T10:00:52.037Z,55.89
2018-11-06T10:01:52.041Z,55.57
2018-11-06T10:02:52.048Z,55.99
2018-11-06T10:03:52.052Z,55.51
2018-11-06T10:04:52.051Z,56.40
2018-11-06T10:05:52.056Z,55.79
2018-11-06T10:06:52.393Z,55.60
2018-11-06T10:07:52.125Z,55.41
2018-11-06T10:08:52.076Z,55.38
2018-11-06T10:09:52.083Z,56.45
2018-11-06T10:10:52.080Z,56.79
2018-11-06T10:11:52.088Z,56.50
2018-11-06T10:12:52.094Z,55.46
2018-11-06T10:13:52.100Z,55.24
2018-11-06T10:14:52.104Z,54.57
2018-11-06T10:15:52.112Z,54.79
2018-11-06T10:16:52.108Z,54.03
2018-11-06T10:17:52.114Z,53.23
2018-11-06T10:18:52.119Z,53.26
2018-11-06T10:19:52.124Z,52.87
2018-11-06T10:20:52.134Z,52.54
2018-11-06T10:21:52.142Z,52.34
2018-11-06T10:22:52.185Z,52.66
2018-11-06T10:23:52.150Z,51.43
2018-11-06T10:24:52.149Z,50.58
2018-11-06T10:25:52.155Z,50.94
2018-11-06T10:26:52.166Z,50.77
2018-11-06T10:27:52.172Z,50.77
2018-11-06T10:28:52.171Z,50.29
2018-11-06T10:29:52.178Z,50.34
2018-11-06T10:30:52.269Z,49.39
2018-11-06T10:31:52.189Z,48.51
2018-11-06T10:32:52.200Z,48.27
2018-11-06T10:33:52.206Z,46.81
2018-11-06T10:34:52.216Z,46.25
2018-11-06T10:35:52.221Z,45.22
2018-11-06T10:36:52.219Z,44.90
2018-11-06T10:37:52.228Z,45.18
2018-11-06T10:38:52.233Z,44.41
2018-11-06T10:39:52.238Z,45.21
2018-11-06T10:40:52.248Z,45.77
2018-11-06T10:41:52.253Z,46.45
2018-11-06T10:42:52.257Z,46.41
2018-11-06T10:43:52.264Z,46.74
2018-11-06T10:44:52.274Z,46.25
2018-11-06T10:45:52.280Z,46.60
2018-11-06T10:46:52.288Z,46.41
2018-11-06T10:47:52.295Z,46.69
2018-11-06T10:48:52.294Z,47.08
2018-11-06T10:49:52.303Z,48.13
2018-11-06T10:50:52.306Z,48.35
2018-11-06T10:51:52.366Z,48.37
2018-11-06T10:52:52.330Z,48.85
2018-11-06T10:53:52.331Z,49.44
2018-11-06T10:54:52.337Z,49.46
2018-11-06T10:55:52.342Z,49.63
2018-11-06T10:56:52.343Z,50.24
2018-11-06T10:57:52.351Z,50.09
2018-11-06T10:58:52.360Z,50.43
2018-11-06T10:59:52.366Z,51.54
2018-11-06T11:00:52.366Z,51.57
2018-11-06T11:01:52.375Z,51.69
2018-11-06T11:02:52.378Z,50.74
2018-11-06T11:03:52.392Z,50.38
2018-11-06T11:04:52.394Z,49.99
2018-11-06T11:05:52.399Z,48.88
2018-11-06T11:06:52.407Z,48.76
2018-11-06T11:07:52.411Z,50.12
2018-11-06T11:08:52.410Z,50.24
2018-11-06T11:09:52.417Z,51.42
2018-11-06T11:10:52.422Z,51.30
2018-11-06T11:11:52.428Z,52.41
2018-11-06T11:12:52.436Z,53.03
2018-11-06T11:13:52.440Z,54.51
2018-11-06T11:14:52.444Z,55.26
2018-11-06T11:15:52.445Z,55.45
2018-11-06T11:16:52.455Z,56.32
2018-11-06T11:17:52.458Z,57.19
2018-11-06T11:18:52.464Z,57.54
2018-11-06T11:19:52.466Z,57.62
2018-11-06T11:20:52.467Z,58.39
2018-11-06T11:21:52.469Z,59.35
2018-11-06T11:22:52.472Z,59.71
2018-11-06T11:23:52.475Z,59.61
2018-11-06T11:24:52.482Z,59.87
2018-11-06T11:25:52.487Z,59.78
2018-11-06T11:26:52.489Z,60.26
2018-11-06T11:27:52.502Z,61.03
2018-11-06T11:28:52.489Z,61.38
2018-11-06T11:29:52.492Z,62.15
2018-11-06T11:30:52.499Z,63.18
2018-11-06T11:31:52.505Z,64.34
2018-11-06T11:32:52.496Z,64.82
2018-11-06T11:33:52.558Z,65.20
2018-11-06T11:34:52.500Z,65.40
2018-11-06T11:35:52.501Z,64.92
2018-11-06T11:36:52.506Z,65.01
2018-11-06T11:37:52.568Z,65.05
2018-11-06T11:38:52.508Z,64.47
2018-11-06T11:39:52.509Z,64.28
2018-11-06T11:40:52.505Z,64.40
2018-11-06T11:41:52.507Z,63.82
2018-11-06T11:42:52.508Z,64.11
2018-11-06T11:43:52.509Z,63.34
2018-11-06T11:44:52.515Z,64.21
2018-11-06T11:45:52.606Z,64.43
2018-11-06T11:46:52.510Z,63.57
2018-11-06T11:47:52.511Z,63.67
2018-11-06T11:48:52.515Z,63.28
2018-11-06T11:49:52.515Z,62.25
2018-11-06T11:50:52.519Z,61.93
2018-11-06T11:51:52.516Z,61.64
2018-11-06T11:52:52.512Z,62.12
2018-11-06T11:53:52.512Z,62.02
2018-11-06T11:54:52.512Z,62.22
2018-11-06T11:55:52.515Z,62.99
2018-11-06T11:56:52.516Z,61.93
2018-11-06T11:57:52.520Z,63.12
2018-11-06T11:58:52.519Z,63.02
2018-11-06T11:59:52.545Z,62.15
2018-11-06T12:00:52.514Z,61.47
2018-11-06T12:01:52.514Z,60.38
2018-11-06T12:02:52.521Z,61.13
2018-11-06T12:03:52.521Z,61.99
2018-11-06T12:04:52.515Z,62.54
2018-11-06T12:05:52.515Z,62.83
2018-11-06T12:06:52.516Z,63.41
2018-11-06T12:07:52.517Z,63.67
2018-11-06T12:08:52.520Z,64.43
2018-11-06T12:09:52.519Z,64.92
2018-11-06T12:10:52.524Z,65.59
2018-11-06T12:11:52.521Z,65.11
2018-11-06T12:12:52.517Z,65.50
2018-11-06T12:13:52.516Z,65.88
2018-11-06T12:14:52.516Z,66.01
2018-11-06T12:15:52.515Z,65.59
2018-11-06T12:16:52.518Z,65.24
2018-11-06T12:17:52.519Z,65.63
2018-11-06T12:18:52.514Z,65.43
2018-11-06T12:19:52.515Z,65.14
2018-11-06T12:20:52.516Z,65.14
2018-11-06T12:21:52.519Z,65.08
2018-11-06T12:22:52.515Z,64.31
2018-11-06T12:23:52.542Z,64.11
2018-11-06T12:24:52.705Z,64.11
2018-11-06T12:25:52.719Z,62.96
2018-11-06T12:26:52.512Z,64.02
2018-11-06T12:27:52.508Z,63.98
2018-11-06T12:28:52.511Z,63.73
2018-11-06T12:29:52.517Z,63.54
2018-11-06T12:30:52.511Z,62.66
2018-11-06T12:31:52.511Z,63.06
2018-11-06T12:32:52.505Z,63.24
2018-11-06T12:33:52.504Z,62.86
2018-11-06T12:34:52.508Z,63.09
2018-11-06T12:35:52.507Z,61.93
2018-11-06T12:36:52.535Z,61.74
2018-11-06T12:37:52.502Z,61.71
2018-11-06T12:38:52.505Z,61.64
2018-11-06T12:39:52.501Z,61.93
2018-11-06T12:40:52.505Z,61.90
2018-11-06T12:41:52.507Z,62.41
2018-11-06T12:42:52.520Z,61.83
2018-11-06T12:43:52.504Z,61.99
2018-11-06T12:44:52.497Z,62.09
2018-11-06T12:45:52.499Z,61.99
2018-11-06T12:46:52.499Z,61.71
2018-11-06T12:47:52.496Z,62.09
2018-11-06T12:48:52.499Z,62.18
2018-11-06T12:49:52.497Z,62.57
2018-11-06T12:50:52.493Z,62.66
2018-11-06T12:51:52.495Z,62.48
2018-11-06T12:52:52.496Z,61.90